sensor_id;sensor_type;location;lat;lon;timestamp;P1;durP1;ratioP1;P2;durP2;ratioP2
4575;SDS011;2300;51.874;8.430;2023-08-06T00:01:37;9.45;;;7.80;;
4575;SDS011;2300;51.874;8.430;2023-08-06T00:04:03;10.45;;;8.15;;
4575;SDS011;2300;51.874;8.430;2023-08-06T00:06:30;10.93;;;7.70;;
4575;SDS011;2300;51.874;8.430;2023-08-06T00:08:56;11.05;;;8.40;;
4575;SDS011;2300;51.874;8.430;2023-08-06T00:11:24;11.23;;;8.52;;
4575;SDS011;2300;51.874;8.430;2023-08-06T00:13:51;10.27;;;8.35;;
4575;SDS011;2300;51.874;8.430;2023-08-06T00:16:17;14.25;;;10.88;;
4575;SDS011;2300;51.874;8.430;2023-08-06T00:18:44;12.53;;;9.47;;
4575;SDS011;2300;51.874;8.430;2023-08-06T00:21:10;11.18;;;8.98;;
4575;SDS011;2300;51.874;8.430;2023-08-06T00:23:38;12.52;;;9.02;;
4575;SDS011;2300;51.874;8.430;2023-08-06T00:26:05;10.52;;;8.13;;
4575;SDS011;2300;51.874;8.430;2023-08-06T00:28:33;12.65;;;9.20;;
4575;SDS011;2300;51.874;8.430;2023-08-06T00:30:59;9.65;;;7.47;;
4575;SDS011;2300;51.874;8.430;2023-08-06T00:33:26;12.13;;;9.75;;
4575;SDS011;2300;51.874;8.430;2023-08-06T00:35:52;13.32;;;10.35;;
4575;SDS011;2300;51.874;8.430;2023-08-06T00:38:19;12.10;;;9.13;;
4575;SDS011;2300;51.874;8.430;2023-08-06T00:40:45;16.05;;;9.35;;
4575;SDS011;2300;51.874;8.430;2023-08-06T00:43:12;10.52;;;8.10;;
4575;SDS011;2300;51.874;8.430;2023-08-06T00:45:40;10.15;;;9.05;;
4575;SDS011;2300;51.874;8.430;2023-08-06T00:48:07;11.27;;;8.43;;
4575;SDS011;2300;51.874;8.430;2023-08-06T00:50:33;10.23;;;7.70;;
4575;SDS011;2300;51.874;8.430;2023-08-06T00:53:00;10.52;;;8.85;;
4575;SDS011;2300;51.874;8.430;2023-08-06T00:55:28;10.40;;;8.27;;
4575;SDS011;2300;51.874;8.430;2023-08-06T00:57:55;11.25;;;8.77;;
4575;SDS011;2300;51.874;8.430;2023-08-06T01:00:22;11.07;;;8.73;;
4575;SDS011;2300;51.874;8.430;2023-08-06T01:02:51;9.52;;;7.72;;
4575;SDS011;2300;51.874;8.430;2023-08-06T01:05:18;13.25;;;8.75;;
4575;SDS011;2300;51.874;8.430;2023-08-06T01:07:47;12.90;;;8.05;;
4575;SDS011;2300;51.874;8.430;2023-08-06T01:10:31;10.15;;;7.72;;
4575;SDS011;2300;51.874;8.430;2023-08-06T01:13:08;13.00;;;8.77;;
4575;SDS011;2300;51.874;8.430;2023-08-06T01:15:43;11.25;;;8.55;;
4575;SDS011;2300;51.874;8.430;2023-08-06T01:18:14;9.75;;;8.38;;
4575;SDS011;2300;51.874;8.430;2023-08-06T01:20:42;12.23;;;9.07;;
4575;SDS011;2300;51.874;8.430;2023-08-06T01:23:09;10.75;;;8.95;;
4575;SDS011;2300;51.874;8.430;2023-08-06T01:25:38;13.50;;;9.30;;
4575;SDS011;2300;51.874;8.430;2023-08-06T01:28:09;10.77;;;8.68;;
4575;SDS011;2300;51.874;8.430;2023-08-06T01:30:40;12.30;;;9.00;;
4575;SDS011;2300;51.874;8.430;2023-08-06T01:33:09;11.45;;;8.73;;
4575;SDS011;2300;51.874;8.430;2023-08-06T01:35:43;11.88;;;8.88;;
4575;SDS011;2300;51.874;8.430;2023-08-06T01:38:10;11.15;;;8.60;;
4575;SDS011;2300;51.874;8.430;2023-08-06T01:40:37;9.90;;;8.90;;
4575;SDS011;2300;51.874;8.430;2023-08-06T01:43:03;11.02;;;8.73;;
4575;SDS011;2300;51.874;8.430;2023-08-06T01:45:30;12.93;;;8.55;;
4575;SDS011;2300;51.874;8.430;2023-08-06T01:47:56;10.27;;;9.15;;
4575;SDS011;2300;51.874;8.430;2023-08-06T01:50:23;11.63;;;9.20;;
4575;SDS011;2300;51.874;8.430;2023-08-06T01:52:51;12.23;;;9.00;;
4575;SDS011;2300;51.874;8.430;2023-08-06T01:55:17;10.63;;;8.40;;
4575;SDS011;2300;51.874;8.430;2023-08-06T01:57:44;11.00;;;8.90;;
4575;SDS011;2300;51.874;8.430;2023-08-06T02:00:11;12.10;;;8.83;;
4575;SDS011;2300;51.874;8.430;2023-08-06T02:02:38;10.55;;;9.30;;
4575;SDS011;2300;51.874;8.430;2023-08-06T02:05:06;14.52;;;9.45;;
4575;SDS011;2300;51.874;8.430;2023-08-06T02:07:33;11.23;;;9.37;;
4575;SDS011;2300;51.874;8.430;2023-08-06T02:10:00;11.10;;;9.40;;
4575;SDS011;2300;51.874;8.430;2023-08-06T02:12:27;10.70;;;9.25;;
4575;SDS011;2300;51.874;8.430;2023-08-06T02:14:53;14.07;;;9.67;;
4575;SDS011;2300;51.874;8.430;2023-08-06T02:17:20;11.57;;;9.27;;
4575;SDS011;2300;51.874;8.430;2023-08-06T02:19:46;14.18;;;9.15;;
4575;SDS011;2300;51.874;8.430;2023-08-06T02:22:13;10.70;;;8.38;;
4575;SDS011;2300;51.874;8.430;2023-08-06T02:24:40;10.37;;;8.37;;
4575;SDS011;2300;51.874;8.430;2023-08-06T02:27:08;11.30;;;8.43;;
4575;SDS011;2300;51.874;8.430;2023-08-06T02:29:34;13.10;;;9.00;;
4575;SDS011;2300;51.874;8.430;2023-08-06T02:32:01;9.82;;;8.73;;
4575;SDS011;2300;51.874;8.430;2023-08-06T02:34:27;9.90;;;8.67;;
4575;SDS011;2300;51.874;8.430;2023-08-06T02:36:54;10.37;;;9.03;;
4575;SDS011;2300;51.874;8.430;2023-08-06T02:39:20;10.50;;;8.07;;
4575;SDS011;2300;51.874;8.430;2023-08-06T02:41:47;9.57;;;8.17;;
4575;SDS011;2300;51.874;8.430;2023-08-06T02:44:15;9.67;;;8.50;;
4575;SDS011;2300;51.874;8.430;2023-08-06T02:46:43;11.93;;;7.90;;
4575;SDS011;2300;51.874;8.430;2023-08-06T02:49:10;10.97;;;8.83;;
4575;SDS011;2300;51.874;8.430;2023-08-06T02:51:37;11.70;;;9.00;;
4575;SDS011;2300;51.874;8.430;2023-08-06T02:54:03;10.10;;;9.07;;
4575;SDS011;2300;51.874;8.430;2023-08-06T02:56:29;13.43;;;9.45;;
4575;SDS011;2300;51.874;8.430;2023-08-06T02:58:55;11.13;;;8.95;;
4575;SDS011;2300;51.874;8.430;2023-08-06T03:01:23;13.77;;;9.53;;
4575;SDS011;2300;51.874;8.430;2023-08-06T03:03:51;11.53;;;9.20;;
4575;SDS011;2300;51.874;8.430;2023-08-06T03:06:18;13.43;;;9.17;;
4575;SDS011;2300;51.874;8.430;2023-08-06T03:08:44;13.07;;;9.43;;
4575;SDS011;2300;51.874;8.430;2023-08-06T03:11:11;16.37;;;9.93;;
4575;SDS011;2300;51.874;8.430;2023-08-06T03:13:38;13.00;;;9.80;;
4575;SDS011;2300;51.874;8.430;2023-08-06T03:16:04;13.55;;;10.27;;
4575;SDS011;2300;51.874;8.430;2023-08-06T03:18:32;13.43;;;10.40;;
4575;SDS011;2300;51.874;8.430;2023-08-06T03:20:58;17.50;;;12.47;;
4575;SDS011;2300;51.874;8.430;2023-08-06T03:23:25;14.87;;;12.20;;
4575;SDS011;2300;51.874;8.430;2023-08-06T03:25:52;16.40;;;12.97;;
4575;SDS011;2300;51.874;8.430;2023-08-06T03:28:18;20.33;;;15.40;;
4575;SDS011;2300;51.874;8.430;2023-08-06T03:30:45;14.98;;;11.68;;
4575;SDS011;2300;51.874;8.430;2023-08-06T03:33:11;15.07;;;11.15;;
4575;SDS011;2300;51.874;8.430;2023-08-06T03:35:39;15.48;;;11.98;;
4575;SDS011;2300;51.874;8.430;2023-08-06T03:38:06;13.60;;;10.13;;
4575;SDS011;2300;51.874;8.430;2023-08-06T03:40:34;13.98;;;10.25;;
4575;SDS011;2300;51.874;8.430;2023-08-06T03:43:01;10.43;;;9.33;;
4575;SDS011;2300;51.874;8.430;2023-08-06T03:45:27;13.53;;;10.70;;
4575;SDS011;2300;51.874;8.430;2023-08-06T03:47:54;14.88;;;11.75;;
4575;SDS011;2300;51.874;8.430;2023-08-06T03:50:20;13.50;;;11.07;;
4575;SDS011;2300;51.874;8.430;2023-08-06T03:52:48;13.73;;;10.93;;
4575;SDS011;2300;51.874;8.430;2023-08-06T03:55:15;15.43;;;10.93;;
4575;SDS011;2300;51.874;8.430;2023-08-06T03:57:41;16.70;;;11.07;;
4575;SDS011;2300;51.874;8.430;2023-08-06T04:00:08;15.17;;;12.13;;
4575;SDS011;2300;51.874;8.430;2023-08-06T04:02:35;16.27;;;12.13;;
4575;SDS011;2300;51.874;8.430;2023-08-06T04:05:02;16.00;;;11.70;;
4575;SDS011;2300;51.874;8.430;2023-08-06T04:07:28;14.37;;;11.37;;
4575;SDS011;2300;51.874;8.430;2023-08-06T04:09:57;15.77;;;12.60;;
4575;SDS011;2300;51.874;8.430;2023-08-06T04:12:25;14.07;;;12.43;;
4575;SDS011;2300;51.874;8.430;2023-08-06T04:14:52;15.93;;;12.07;;
4575;SDS011;2300;51.874;8.430;2023-08-06T04:17:19;15.80;;;12.03;;
4575;SDS011;2300;51.874;8.430;2023-08-06T04:19:47;13.17;;;11.20;;
4575;SDS011;2300;51.874;8.430;2023-08-06T04:22:15;13.60;;;11.83;;
4575;SDS011;2300;51.874;8.430;2023-08-06T04:24:41;14.83;;;11.90;;
4575;SDS011;2300;51.874;8.430;2023-08-06T04:27:11;18.20;;;13.27;;
4575;SDS011;2300;51.874;8.430;2023-08-06T04:29:38;15.90;;;12.60;;
4575;SDS011;2300;51.874;8.430;2023-08-06T04:32:06;15.23;;;11.63;;
4575;SDS011;2300;51.874;8.430;2023-08-06T04:34:33;16.83;;;11.10;;
4575;SDS011;2300;51.874;8.430;2023-08-06T04:37:00;18.00;;;11.53;;
4575;SDS011;2300;51.874;8.430;2023-08-06T04:39:27;13.50;;;11.63;;
4575;SDS011;2300;51.874;8.430;2023-08-06T04:41:54;14.57;;;11.43;;
4575;SDS011;2300;51.874;8.430;2023-08-06T04:44:23;14.83;;;11.40;;
4575;SDS011;2300;51.874;8.430;2023-08-06T04:46:49;15.90;;;13.33;;
4575;SDS011;2300;51.874;8.430;2023-08-06T04:49:16;15.60;;;13.90;;
4575;SDS011;2300;51.874;8.430;2023-08-06T04:51:43;16.10;;;12.20;;
4575;SDS011;2300;51.874;8.430;2023-08-06T04:54:10;15.30;;;12.67;;
4575;SDS011;2300;51.874;8.430;2023-08-06T04:56:36;17.75;;;12.30;;
4575;SDS011;2300;51.874;8.430;2023-08-06T04:59:03;14.20;;;12.05;;
4575;SDS011;2300;51.874;8.430;2023-08-06T05:01:30;15.65;;;12.88;;
4575;SDS011;2300;51.874;8.430;2023-08-06T05:03:57;15.98;;;12.25;;
4575;SDS011;2300;51.874;8.430;2023-08-06T05:06:24;16.37;;;12.97;;
4575;SDS011;2300;51.874;8.430;2023-08-06T05:08:50;16.10;;;13.15;;
4575;SDS011;2300;51.874;8.430;2023-08-06T05:11:17;14.52;;;13.02;;
4575;SDS011;2300;51.874;8.430;2023-08-06T05:13:43;9.95;;;7.60;;
4575;SDS011;2300;51.874;8.430;2023-08-06T05:16:10;8.88;;;6.70;;
4575;SDS011;2300;51.874;8.430;2023-08-06T05:18:38;7.38;;;6.03;;
4575;SDS011;2300;51.874;8.430;2023-08-06T05:21:04;6.70;;;5.80;;
4575;SDS011;2300;51.874;8.430;2023-08-06T05:23:31;8.10;;;5.82;;
4575;SDS011;2300;51.874;8.430;2023-08-06T05:25:57;8.68;;;7.32;;
4575;SDS011;2300;51.874;8.430;2023-08-06T05:28:24;9.85;;;7.70;;
4575;SDS011;2300;51.874;8.430;2023-08-06T05:30:50;7.80;;;6.88;;
4575;SDS011;2300;51.874;8.430;2023-08-06T05:33:17;7.82;;;6.30;;
4575;SDS011;2300;51.874;8.430;2023-08-06T05:35:45;6.97;;;5.65;;
4575;SDS011;2300;51.874;8.430;2023-08-06T05:38:11;7.60;;;5.18;;
4575;SDS011;2300;51.874;8.430;2023-08-06T05:40:38;6.38;;;5.03;;
4575;SDS011;2300;51.874;8.430;2023-08-06T05:43:04;6.95;;;4.78;;
4575;SDS011;2300;51.874;8.430;2023-08-06T05:45:31;6.22;;;4.43;;
4575;SDS011;2300;51.874;8.430;2023-08-06T05:47:57;6.22;;;4.10;;
4575;SDS011;2300;51.874;8.430;2023-08-06T05:50:23;5.95;;;4.30;;
4575;SDS011;2300;51.874;8.430;2023-08-06T05:52:51;5.72;;;4.47;;
4575;SDS011;2300;51.874;8.430;2023-08-06T05:55:18;6.55;;;5.07;;
4575;SDS011;2300;51.874;8.430;2023-08-06T05:57:45;6.43;;;5.28;;
4575;SDS011;2300;51.874;8.430;2023-08-06T06:00:11;11.25;;;5.70;;
4575;SDS011;2300;51.874;8.430;2023-08-06T06:02:38;6.63;;;5.82;;
4575;SDS011;2300;51.874;8.430;2023-08-06T06:05:05;8.75;;;5.47;;
4575;SDS011;2300;51.874;8.430;2023-08-06T06:07:31;6.60;;;5.78;;
4575;SDS011;2300;51.874;8.430;2023-08-06T06:10:00;6.82;;;5.80;;
4575;SDS011;2300;51.874;8.430;2023-08-06T06:12:26;7.60;;;6.05;;
4575;SDS011;2300;51.874;8.430;2023-08-06T06:14:53;9.25;;;6.55;;
4575;SDS011;2300;51.874;8.430;2023-08-06T06:17:19;8.82;;;6.80;;
4575;SDS011;2300;51.874;8.430;2023-08-06T06:19:46;9.02;;;5.90;;
4575;SDS011;2300;51.874;8.430;2023-08-06T06:22:13;6.18;;;5.05;;
4575;SDS011;2300;51.874;8.430;2023-08-06T06:24:40;6.95;;;4.85;;
4575;SDS011;2300;51.874;8.430;2023-08-06T06:27:08;7.88;;;6.05;;
4575;SDS011;2300;51.874;8.430;2023-08-06T06:29:34;6.78;;;5.63;;
4575;SDS011;2300;51.874;8.430;2023-08-06T06:32:01;7.65;;;6.53;;
4575;SDS011;2300;51.874;8.430;2023-08-06T06:34:27;9.35;;;6.35;;
4575;SDS011;2300;51.874;8.430;2023-08-06T06:36:54;7.57;;;6.78;;
4575;SDS011;2300;51.874;8.430;2023-08-06T06:39:20;7.68;;;6.88;;
4575;SDS011;2300;51.874;8.430;2023-08-06T06:41:47;9.20;;;6.70;;
4575;SDS011;2300;51.874;8.430;2023-08-06T06:44:15;8.02;;;7.22;;
4575;SDS011;2300;51.874;8.430;2023-08-06T06:46:41;8.35;;;6.95;;
4575;SDS011;2300;51.874;8.430;2023-08-06T06:49:08;8.52;;;7.38;;
4575;SDS011;2300;51.874;8.430;2023-08-06T06:51:34;8.65;;;6.22;;
4575;SDS011;2300;51.874;8.430;2023-08-06T06:54:01;7.28;;;6.03;;
4575;SDS011;2300;51.874;8.430;2023-08-06T06:56:28;5.63;;;4.88;;
4575;SDS011;2300;51.874;8.430;2023-08-06T06:58:54;5.50;;;4.15;;
4575;SDS011;2300;51.874;8.430;2023-08-06T07:01:22;5.65;;;3.92;;
4575;SDS011;2300;51.874;8.430;2023-08-06T07:03:49;7.38;;;4.07;;
4575;SDS011;2300;51.874;8.430;2023-08-06T07:06:15;4.07;;;3.65;;
4575;SDS011;2300;51.874;8.430;2023-08-06T07:08:43;5.97;;;3.65;;
4575;SDS011;2300;51.874;8.430;2023-08-06T07:11:10;4.68;;;3.72;;
4575;SDS011;2300;51.874;8.430;2023-08-06T07:13:36;4.97;;;3.00;;
4575;SDS011;2300;51.874;8.430;2023-08-06T07:16:03;5.80;;;3.10;;
4575;SDS011;2300;51.874;8.430;2023-08-06T07:18:31;5.32;;;3.22;;
4575;SDS011;2300;51.874;8.430;2023-08-06T07:20:57;5.07;;;3.22;;
4575;SDS011;2300;51.874;8.430;2023-08-06T07:23:25;6.15;;;2.92;;
4575;SDS011;2300;51.874;8.430;2023-08-06T07:25:52;5.35;;;3.63;;
4575;SDS011;2300;51.874;8.430;2023-08-06T07:28:18;4.30;;;3.22;;
4575;SDS011;2300;51.874;8.430;2023-08-06T07:30:45;5.85;;;3.33;;
4575;SDS011;2300;51.874;8.430;2023-08-06T07:33:12;5.68;;;3.42;;
4575;SDS011;2300;51.874;8.430;2023-08-06T07:35:40;4.35;;;3.08;;
4575;SDS011;2300;51.874;8.430;2023-08-06T07:38:06;5.28;;;2.67;;
4575;SDS011;2300;51.874;8.430;2023-08-06T07:40:35;6.70;;;3.10;;
4575;SDS011;2300;51.874;8.430;2023-08-06T07:43:01;3.97;;;3.13;;
4575;SDS011;2300;51.874;8.430;2023-08-06T07:45:28;5.53;;;3.45;;
4575;SDS011;2300;51.874;8.430;2023-08-06T07:47:58;6.63;;;3.70;;
4575;SDS011;2300;51.874;8.430;2023-08-06T07:50:25;5.20;;;3.33;;
4575;SDS011;2300;51.874;8.430;2023-08-06T07:52:53;5.80;;;3.42;;
4575;SDS011;2300;51.874;8.430;2023-08-06T07:55:19;4.47;;;2.80;;
4575;SDS011;2300;51.874;8.430;2023-08-06T07:57:46;4.35;;;3.40;;
4575;SDS011;2300;51.874;8.430;2023-08-06T08:00:12;6.30;;;3.03;;
4575;SDS011;2300;51.874;8.430;2023-08-06T08:02:39;4.22;;;2.58;;
4575;SDS011;2300;51.874;8.430;2023-08-06T08:05:06;3.53;;;2.30;;
4575;SDS011;2300;51.874;8.430;2023-08-06T08:07:33;3.67;;;2.42;;
4575;SDS011;2300;51.874;8.430;2023-08-06T08:10:01;4.90;;;2.20;;
4575;SDS011;2300;51.874;8.430;2023-08-06T08:12:28;3.00;;;1.90;;
4575;SDS011;2300;51.874;8.430;2023-08-06T08:14:54;3.95;;;2.50;;
4575;SDS011;2300;51.874;8.430;2023-08-06T08:17:21;3.63;;;2.38;;
4575;SDS011;2300;51.874;8.430;2023-08-06T08:19:48;4.28;;;2.33;;
4575;SDS011;2300;51.874;8.430;2023-08-06T08:22:14;2.92;;;1.50;;
4575;SDS011;2300;51.874;8.430;2023-08-06T08:24:41;2.97;;;2.03;;
4575;SDS011;2300;51.874;8.430;2023-08-06T08:27:08;5.13;;;2.20;;
4575;SDS011;2300;51.874;8.430;2023-08-06T08:29:35;5.05;;;2.15;;
4575;SDS011;2300;51.874;8.430;2023-08-06T08:32:01;4.65;;;2.15;;
4575;SDS011;2300;51.874;8.430;2023-08-06T08:34:28;6.43;;;2.28;;
4575;SDS011;2300;51.874;8.430;2023-08-06T08:36:55;4.28;;;2.10;;
4575;SDS011;2300;51.874;8.430;2023-08-06T08:39:22;3.35;;;2.10;;
4575;SDS011;2300;51.874;8.430;2023-08-06T08:41:48;3.15;;;2.05;;
4575;SDS011;2300;51.874;8.430;2023-08-06T08:44:16;3.53;;;2.10;;
4575;SDS011;2300;51.874;8.430;2023-08-06T08:46:43;6.10;;;2.30;;
4575;SDS011;2300;51.874;8.430;2023-08-06T08:49:12;4.45;;;2.10;;
4575;SDS011;2300;51.874;8.430;2023-08-06T08:51:39;3.30;;;2.03;;
4575;SDS011;2300;51.874;8.430;2023-08-06T08:54:06;3.35;;;1.95;;
4575;SDS011;2300;51.874;8.430;2023-08-06T08:56:34;3.30;;;1.80;;
4575;SDS011;2300;51.874;8.430;2023-08-06T08:59:01;3.97;;;2.22;;
4575;SDS011;2300;51.874;8.430;2023-08-06T09:01:29;3.75;;;1.88;;
4575;SDS011;2300;51.874;8.430;2023-08-06T09:03:56;4.45;;;2.30;;
4575;SDS011;2300;51.874;8.430;2023-08-06T09:06:24;3.53;;;2.10;;
4575;SDS011;2300;51.874;8.430;2023-08-06T09:08:56;3.05;;;2.10;;
4575;SDS011;2300;51.874;8.430;2023-08-06T09:11:28;3.88;;;2.40;;
4575;SDS011;2300;51.874;8.430;2023-08-06T09:14:04;5.50;;;2.25;;
4575;SDS011;2300;51.874;8.430;2023-08-06T09:16:33;3.45;;;1.77;;
4575;SDS011;2300;51.874;8.430;2023-08-06T09:19:06;2.17;;;1.50;;
4575;SDS011;2300;51.874;8.430;2023-08-06T09:21:33;3.92;;;1.70;;
4575;SDS011;2300;51.874;8.430;2023-08-06T09:24:06;4.63;;;2.08;;
4575;SDS011;2300;51.874;8.430;2023-08-06T09:26:34;2.90;;;1.70;;
4575;SDS011;2300;51.874;8.430;2023-08-06T09:29:03;3.47;;;2.05;;
4575;SDS011;2300;51.874;8.430;2023-08-06T09:31:33;3.33;;;2.08;;
4575;SDS011;2300;51.874;8.430;2023-08-06T09:34:10;3.90;;;2.00;;
4575;SDS011;2300;51.874;8.430;2023-08-06T09:36:39;4.72;;;2.10;;
4575;SDS011;2300;51.874;8.430;2023-08-06T09:39:12;2.72;;;1.73;;
4575;SDS011;2300;51.874;8.430;2023-08-06T09:41:39;3.13;;;1.60;;
4575;SDS011;2300;51.874;8.430;2023-08-06T09:44:05;3.40;;;1.88;;
4575;SDS011;2300;51.874;8.430;2023-08-06T09:46:43;3.85;;;1.88;;
4575;SDS011;2300;51.874;8.430;2023-08-06T09:49:14;3.30;;;1.95;;
4575;SDS011;2300;51.874;8.430;2023-08-06T09:51:41;2.67;;;1.60;;
4575;SDS011;2300;51.874;8.430;2023-08-06T09:54:09;2.20;;;1.50;;
4575;SDS011;2300;51.874;8.430;2023-08-06T09:56:38;2.95;;;1.45;;
4575;SDS011;2300;51.874;8.430;2023-08-06T09:59:05;2.35;;;1.40;;
4575;SDS011;2300;51.874;8.430;2023-08-06T10:01:32;2.83;;;1.55;;
4575;SDS011;2300;51.874;8.430;2023-08-06T10:04:01;2.67;;;1.55;;
4575;SDS011;2300;51.874;8.430;2023-08-06T10:06:28;7.60;;;1.50;;
4575;SDS011;2300;51.874;8.430;2023-08-06T10:08:55;4.40;;;1.38;;
4575;SDS011;2300;51.874;8.430;2023-08-06T10:11:23;2.00;;;1.20;;
4575;SDS011;2300;51.874;8.430;2023-08-06T10:13:52;3.65;;;1.70;;
4575;SDS011;2300;51.874;8.430;2023-08-06T10:16:23;1.80;;;1.45;;
4575;SDS011;2300;51.874;8.430;2023-08-06T10:18:50;3.47;;;1.63;;
4575;SDS011;2300;51.874;8.430;2023-08-06T10:21:18;1.60;;;1.10;;
4575;SDS011;2300;51.874;8.430;2023-08-06T10:23:49;3.38;;;1.40;;
4575;SDS011;2300;51.874;8.430;2023-08-06T10:26:20;2.65;;;1.05;;
4575;SDS011;2300;51.874;8.430;2023-08-06T10:28:47;3.03;;;1.70;;
4575;SDS011;2300;51.874;8.430;2023-08-06T10:31:13;2.15;;;1.60;;
4575;SDS011;2300;51.874;8.430;2023-08-06T10:33:40;2.67;;;1.60;;
4575;SDS011;2300;51.874;8.430;2023-08-06T10:36:08;3.08;;;1.80;;
4575;SDS011;2300;51.874;8.430;2023-08-06T10:38:43;3.10;;;1.73;;
4575;SDS011;2300;51.874;8.430;2023-08-06T10:41:14;4.00;;;1.88;;
4575;SDS011;2300;51.874;8.430;2023-08-06T10:43:42;3.72;;;1.90;;
4575;SDS011;2300;51.874;8.430;2023-08-06T10:46:10;3.25;;;2.15;;
4575;SDS011;2300;51.874;8.430;2023-08-06T10:48:38;2.75;;;2.13;;
4575;SDS011;2300;51.874;8.430;2023-08-06T10:51:07;3.90;;;2.33;;
4575;SDS011;2300;51.874;8.430;2023-08-06T10:53:34;3.47;;;1.77;;
4575;SDS011;2300;51.874;8.430;2023-08-06T10:56:02;1.90;;;1.38;;
4575;SDS011;2300;51.874;8.430;2023-08-06T10:58:37;3.47;;;1.77;;
4575;SDS011;2300;51.874;8.430;2023-08-06T11:01:04;3.72;;;1.80;;
4575;SDS011;2300;51.874;8.430;2023-08-06T11:03:32;1.90;;;1.50;;
4575;SDS011;2300;51.874;8.430;2023-08-06T11:05:59;2.13;;;1.27;;
4575;SDS011;2300;51.874;8.430;2023-08-06T11:08:26;4.10;;;1.42;;
4575;SDS011;2300;51.874;8.430;2023-08-06T11:10:53;2.22;;;1.15;;
4575;SDS011;2300;51.874;8.430;2023-08-06T11:13:21;2.85;;;1.45;;
4575;SDS011;2300;51.874;8.430;2023-08-06T11:15:48;2.70;;;1.50;;
4575;SDS011;2300;51.874;8.430;2023-08-06T11:18:14;5.15;;;1.67;;
4575;SDS011;2300;51.874;8.430;2023-08-06T11:20:42;3.67;;;1.50;;
4575;SDS011;2300;51.874;8.430;2023-08-06T11:23:09;4.35;;;1.42;;
4575;SDS011;2300;51.874;8.430;2023-08-06T11:25:36;3.33;;;1.48;;
4575;SDS011;2300;51.874;8.430;2023-08-06T11:28:03;3.33;;;1.13;;
4575;SDS011;2300;51.874;8.430;2023-08-06T11:30:31;3.75;;;1.33;;
4575;SDS011;2300;51.874;8.430;2023-08-06T11:32:58;3.22;;;1.42;;
4575;SDS011;2300;51.874;8.430;2023-08-06T11:35:25;3.00;;;1.30;;
4575;SDS011;2300;51.874;8.430;2023-08-06T11:37:51;2.25;;;1.40;;
4575;SDS011;2300;51.874;8.430;2023-08-06T11:40:18;4.43;;;1.70;;
4575;SDS011;2300;51.874;8.430;2023-08-06T11:42:46;1.85;;;1.20;;
4575;SDS011;2300;51.874;8.430;2023-08-06T11:45:13;2.65;;;1.48;;
4575;SDS011;2300;51.874;8.430;2023-08-06T11:47:49;2.25;;;1.52;;
4575;SDS011;2300;51.874;8.430;2023-08-06T11:50:21;2.90;;;2.00;;
4575;SDS011;2300;51.874;8.430;2023-08-06T11:52:48;3.05;;;1.90;;
4575;SDS011;2300;51.874;8.430;2023-08-06T11:55:22;3.83;;;2.38;;
4575;SDS011;2300;51.874;8.430;2023-08-06T11:57:50;5.82;;;3.20;;
4575;SDS011;2300;51.874;8.430;2023-08-06T12:00:17;6.03;;;2.70;;
4575;SDS011;2300;51.874;8.430;2023-08-06T12:02:48;3.10;;;2.33;;
4575;SDS011;2300;51.874;8.430;2023-08-06T12:05:17;6.60;;;2.85;;
4575;SDS011;2300;51.874;8.430;2023-08-06T12:07:46;8.00;;;2.97;;
4575;SDS011;2300;51.874;8.430;2023-08-06T12:10:14;4.22;;;2.10;;
4575;SDS011;2300;51.874;8.430;2023-08-06T12:12:41;4.60;;;2.38;;
4575;SDS011;2300;51.874;8.430;2023-08-06T12:15:08;3.38;;;2.28;;
4575;SDS011;2300;51.874;8.430;2023-08-06T12:17:36;4.97;;;2.75;;
4575;SDS011;2300;51.874;8.430;2023-08-06T12:20:04;4.07;;;2.40;;
4575;SDS011;2300;51.874;8.430;2023-08-06T12:22:32;5.90;;;2.67;;
4575;SDS011;2300;51.874;8.430;2023-08-06T12:25:00;3.17;;;2.08;;
4575;SDS011;2300;51.874;8.430;2023-08-06T12:27:27;3.70;;;2.05;;
4575;SDS011;2300;51.874;8.430;2023-08-06T12:29:54;5.35;;;2.30;;
4575;SDS011;2300;51.874;8.430;2023-08-06T12:32:20;4.93;;;2.70;;
4575;SDS011;2300;51.874;8.430;2023-08-06T12:34:47;4.30;;;2.00;;
4575;SDS011;2300;51.874;8.430;2023-08-06T12:37:15;4.10;;;2.50;;
4575;SDS011;2300;51.874;8.430;2023-08-06T12:39:41;9.30;;;2.53;;
4575;SDS011;2300;51.874;8.430;2023-08-06T12:42:08;4.85;;;2.72;;
4575;SDS011;2300;51.874;8.430;2023-08-06T12:44:35;5.35;;;2.40;;
4575;SDS011;2300;51.874;8.430;2023-08-06T12:47:02;3.97;;;2.53;;
4575;SDS011;2300;51.874;8.430;2023-08-06T12:49:29;5.05;;;2.17;;
4575;SDS011;2300;51.874;8.430;2023-08-06T12:51:56;4.57;;;2.17;;
4575;SDS011;2300;51.874;8.430;2023-08-06T12:54:26;3.40;;;2.60;;
4575;SDS011;2300;51.874;8.430;2023-08-06T12:56:53;3.65;;;2.00;;
4575;SDS011;2300;51.874;8.430;2023-08-06T12:59:20;4.95;;;2.15;;
4575;SDS011;2300;51.874;8.430;2023-08-06T13:01:47;4.57;;;2.50;;
4575;SDS011;2300;51.874;8.430;2023-08-06T13:04:14;5.10;;;2.55;;
4575;SDS011;2300;51.874;8.430;2023-08-06T13:06:40;4.90;;;2.45;;
4575;SDS011;2300;51.874;8.430;2023-08-06T13:09:07;5.13;;;2.53;;
4575;SDS011;2300;51.874;8.430;2023-08-06T13:11:35;5.50;;;2.95;;
4575;SDS011;2300;51.874;8.430;2023-08-06T13:14:06;8.27;;;3.25;;
4575;SDS011;2300;51.874;8.430;2023-08-06T13:16:34;4.53;;;3.00;;
4575;SDS011;2300;51.874;8.430;2023-08-06T13:19:01;3.95;;;2.80;;
4575;SDS011;2300;51.874;8.430;2023-08-06T13:21:31;4.35;;;2.85;;
4575;SDS011;2300;51.874;8.430;2023-08-06T13:23:58;4.10;;;2.72;;
4575;SDS011;2300;51.874;8.430;2023-08-06T13:26:25;3.85;;;2.72;;
4575;SDS011;2300;51.874;8.430;2023-08-06T13:28:53;2.60;;;2.00;;
4575;SDS011;2300;51.874;8.430;2023-08-06T13:31:19;4.03;;;1.77;;
4575;SDS011;2300;51.874;8.430;2023-08-06T13:33:46;4.35;;;2.03;;
4575;SDS011;2300;51.874;8.430;2023-08-06T13:36:14;4.43;;;2.30;;
4575;SDS011;2300;51.874;8.430;2023-08-06T13:38:41;6.18;;;2.70;;
4575;SDS011;2300;51.874;8.430;2023-08-06T13:41:08;4.03;;;2.50;;
4575;SDS011;2300;51.874;8.430;2023-08-06T13:43:34;5.03;;;2.33;;
4575;SDS011;2300;51.874;8.430;2023-08-06T13:46:02;3.17;;;2.50;;
4575;SDS011;2300;51.874;8.430;2023-08-06T13:48:29;4.65;;;3.00;;
4575;SDS011;2300;51.874;8.430;2023-08-06T13:50:55;4.18;;;3.05;;
4575;SDS011;2300;51.874;8.430;2023-08-06T13:53:22;4.95;;;2.80;;
4575;SDS011;2300;51.874;8.430;2023-08-06T13:55:50;4.82;;;2.70;;
4575;SDS011;2300;51.874;8.430;2023-08-06T13:58:17;3.95;;;2.20;;
4575;SDS011;2300;51.874;8.430;2023-08-06T14:00:43;3.40;;;2.22;;
4575;SDS011;2300;51.874;8.430;2023-08-06T14:03:11;5.57;;;2.53;;
4575;SDS011;2300;51.874;8.430;2023-08-06T14:05:38;3.45;;;2.00;;
4575;SDS011;2300;51.874;8.430;2023-08-06T14:08:04;2.50;;;1.98;;
4575;SDS011;2300;51.874;8.430;2023-08-06T14:10:31;3.03;;;1.92;;
4575;SDS011;2300;51.874;8.430;2023-08-06T14:12:57;3.55;;;1.95;;
4575;SDS011;2300;51.874;8.430;2023-08-06T14:15:24;4.78;;;2.17;;
4575;SDS011;2300;51.874;8.430;2023-08-06T14:17:50;3.60;;;2.25;;
4575;SDS011;2300;51.874;8.430;2023-08-06T14:20:18;4.57;;;2.25;;
4575;SDS011;2300;51.874;8.430;2023-08-06T14:22:45;5.70;;;2.72;;
4575;SDS011;2300;51.874;8.430;2023-08-06T14:25:11;5.45;;;2.95;;
4575;SDS011;2300;51.874;8.430;2023-08-06T14:27:38;4.63;;;2.70;;
4575;SDS011;2300;51.874;8.430;2023-08-06T14:30:07;5.70;;;3.45;;
4575;SDS011;2300;51.874;8.430;2023-08-06T14:32:34;6.35;;;3.28;;
4575;SDS011;2300;51.874;8.430;2023-08-06T14:35:00;5.00;;;3.67;;
4575;SDS011;2300;51.874;8.430;2023-08-06T14:37:28;5.32;;;3.63;;
4575;SDS011;2300;51.874;8.430;2023-08-06T14:39:55;5.20;;;3.25;;
4575;SDS011;2300;51.874;8.430;2023-08-06T14:42:21;6.68;;;3.55;;
4575;SDS011;2300;51.874;8.430;2023-08-06T14:44:48;7.05;;;3.95;;
4575;SDS011;2300;51.874;8.430;2023-08-06T14:47:15;5.35;;;3.42;;
4575;SDS011;2300;51.874;8.430;2023-08-06T14:49:41;4.10;;;2.92;;
4575;SDS011;2300;51.874;8.430;2023-08-06T14:52:08;4.45;;;2.63;;
4575;SDS011;2300;51.874;8.430;2023-08-06T14:54:36;3.42;;;2.05;;
4575;SDS011;2300;51.874;8.430;2023-08-06T14:57:03;3.42;;;2.25;;
4575;SDS011;2300;51.874;8.430;2023-08-06T14:59:30;3.50;;;2.08;;
4575;SDS011;2300;51.874;8.430;2023-08-06T15:01:57;2.78;;;2.10;;
4575;SDS011;2300;51.874;8.430;2023-08-06T15:04:24;3.15;;;2.33;;
4575;SDS011;2300;51.874;8.430;2023-08-06T15:06:50;5.90;;;2.88;;
4575;SDS011;2300;51.874;8.430;2023-08-06T15:09:17;4.32;;;2.45;;
4575;SDS011;2300;51.874;8.430;2023-08-06T15:11:48;5.13;;;2.55;;